sensor_id;sensor_type;location;lat;lon;timestamp;pressure;altitude;pressure_sealevel;temperature;humidity
22018;BME280;11173;51.050;7.108;2023-03-26T00:06:43;98712.63;;;8.26;64.07
22018;BME280;11173;51.050;7.108;2023-03-26T00:16:43;98704.00;;;8.20;64.25
22018;BME280;11173;51.050;7.108;2023-03-26T00:26:44;98716.63;;;8.25;64.37
22018;BME280;11173;51.050;7.108;2023-03-26T00:36:52;98699.09;;;8.28;64.15
22018;BME280;11173;51.050;7.108;2023-03-26T00:46:53;98709.78;;;8.29;64.35
22018;BME280;11173;51.050;7.108;2023-03-26T00:56:54;98697.19;;;8.25;64.64
22018;BME280;11173;51.050;7.108;2023-03-26T01:07:01;98680.13;;;8.26;65.17
22018;BME280;11173;51.050;7.108;2023-03-26T01:17:04;98673.00;;;8.25;65.05
22018;BME280;11173;51.050;7.108;2023-03-26T01:37:24;98642.13;;;8.23;65.40
22018;BME280;11173;51.050;7.108;2023-03-26T01:47:31;98629.75;;;8.08;65.38
22018;BME280;11173;51.050;7.108;2023-03-26T01:57:56;98618.03;;;8.00;66.00
22018;BME280;11173;51.050;7.108;2023-03-26T02:08:22;98609.34;;;7.98;66.46
22018;BME280;11173;51.050;7.108;2023-03-26T02:18:23;98592.38;;;7.76;65.20
22018;BME280;11173;51.050;7.108;2023-03-26T02:28:26;98575.84;;;7.32;64.83
22018;BME280;11173;51.050;7.108;2023-03-26T02:38:28;98562.59;;;6.73;64.87
22018;BME280;11173;51.050;7.108;2023-03-26T02:48:28;98544.13;;;6.15;65.50
22018;BME280;11173;51.050;7.108;2023-03-26T02:58:30;98536.78;;;5.74;66.39
22018;BME280;11173;51.050;7.108;2023-03-26T03:08:31;98519.41;;;5.47;66.84
22018;BME280;11173;51.050;7.108;2023-03-26T03:18:31;98510.88;;;5.30;68.10
22018;BME280;11173;51.050;7.108;2023-03-26T03:28:31;98500.06;;;5.47;69.07
22018;BME280;11173;51.050;7.108;2023-03-26T03:38:32;98480.34;;;5.75;69.63
22018;BME280;11173;51.050;7.108;2023-03-26T03:48:32;98474.69;;;6.10;69.28
22018;BME280;11173;51.050;7.108;2023-03-26T03:58:37;98460.03;;;6.36;68.88
22018;BME280;11173;51.050;7.108;2023-03-26T04:08:37;98450.22;;;6.55;68.79
22018;BME280;11173;51.050;7.108;2023-03-26T04:18:38;98429.06;;;6.69;68.40
22018;BME280;11173;51.050;7.108;2023-03-26T04:28:46;98410.69;;;6.79;68.65
22018;BME280;11173;51.050;7.108;2023-03-26T04:38:47;98392.44;;;6.81;68.33
22018;BME280;11173;51.050;7.108;2023-03-26T04:48:52;98368.66;;;6.84;68.70
22018;BME280;11173;51.050;7.108;2023-03-26T04:58:56;98359.16;;;6.85;68.80
22018;BME280;11173;51.050;7.108;2023-03-26T05:08:59;98346.78;;;6.89;68.82
22018;BME280;11173;51.050;7.108;2023-03-26T05:19:01;98343.16;;;6.92;68.97
22018;BME280;11173;51.050;7.108;2023-03-26T05:29:02;98321.75;;;6.96;68.80
22018;BME280;11173;51.050;7.108;2023-03-26T05:39:04;98318.09;;;7.00;68.86
22018;BME280;11173;51.050;7.108;2023-03-26T05:49:04;98291.53;;;7.02;69.05
22018;BME280;11173;51.050;7.108;2023-03-26T05:59:05;98283.50;;;7.08;69.41
22018;BME280;11173;51.050;7.108;2023-03-26T06:09:05;98270.69;;;7.14;69.24
22018;BME280;11173;51.050;7.108;2023-03-26T06:19:06;98261.13;;;7.19;69.26
22018;BME280;11173;51.050;7.108;2023-03-26T06:29:07;98259.03;;;7.23;69.53
22018;BME280;11173;51.050;7.108;2023-03-26T06:39:08;98247.50;;;7.24;69.31
22018;BME280;11173;51.050;7.108;2023-03-26T06:49:08;98230.38;;;7.13;69.93
22018;BME280;11173;51.050;7.108;2023-03-26T06:59:09;98224.66;;;7.04;70.77
22018;BME280;11173;51.050;7.108;2023-03-26T07:09:09;98212.53;;;6.97;71.22
22018;BME280;11173;51.050;7.108;2023-03-26T07:19:09;98191.97;;;6.99;71.57
22018;BME280;11173;51.050;7.108;2023-03-26T07:29:23;98182.78;;;7.02;71.98
22018;BME280;11173;51.050;7.108;2023-03-26T07:39:48;98178.63;;;7.10;71.63
22018;BME280;11173;51.050;7.108;2023-03-26T07:49:53;98165.31;;;7.21;71.79
22018;BME280;11173;51.050;7.108;2023-03-26T08:00:01;98153.13;;;7.35;71.24
22018;BME280;11173;51.050;7.108;2023-03-26T08:10:26;98146.25;;;7.40;70.88
22018;BME280;11173;51.050;7.108;2023-03-26T08:20:38;98138.84;;;7.36;71.01
22018;BME280;11173;51.050;7.108;2023-03-26T08:30:41;98133.19;;;7.40;71.13
22018;BME280;11173;51.050;7.108;2023-03-26T08:51:10;98126.13;;;7.52;70.97
22018;BME280;11173;51.050;7.108;2023-03-26T09:01:46;98125.63;;;7.57;70.63
22018;BME280;11173;51.050;7.108;2023-03-26T09:12:10;98124.19;;;7.52;70.56
22018;BME280;11173;51.050;7.108;2023-03-26T09:22:58;98097.41;;;7.46;70.34
22018;BME280;11173;51.050;7.108;2023-03-26T10:05:21;98057.56;;;7.10;68.00
22018;BME280;11173;51.050;7.108;2023-03-26T10:16:03;98033.13;;;6.92;68.44
22018;BME280;11173;51.050;7.108;2023-03-26T10:26:38;98027.09;;;6.81;69.93
22018;BME280;11173;51.050;7.108;2023-03-26T10:37:33;98000.53;;;6.84;70.26
22018;BME280;11173;51.050;7.108;2023-03-26T10:58:55;97985.31;;;6.75;70.32
22018;BME280;11173;51.050;7.108;2023-03-26T11:20:19;97954.63;;;6.70;72.09
22018;BME280;11173;51.050;7.108;2023-03-26T11:30:48;97955.25;;;7.07;71.33
22018;BME280;11173;51.050;7.108;2023-03-26T11:41:15;97945.81;;;7.46;70.29
22018;BME280;11173;51.050;7.108;2023-03-26T11:51:40;97932.22;;;7.77;69.61
22018;BME280;11173;51.050;7.108;2023-03-26T12:12:28;97943.81;;;8.24;70.83
22018;BME280;11173;51.050;7.108;2023-03-26T12:22:55;97939.53;;;8.57;68.66
22018;BME280;11173;51.050;7.108;2023-03-26T12:33:23;97940.00;;;8.91;67.74
22018;BME280;11173;51.050;7.108;2023-03-26T12:43:51;97935.84;;;9.40;67.93
22018;BME280;11173;51.050;7.108;2023-03-26T12:54:26;97934.53;;;9.94;66.87
22018;BME280;11173;51.050;7.108;2023-03-26T13:15:19;97943.72;;;10.90;63.75
22018;BME280;11173;51.050;7.108;2023-03-26T13:36:33;97949.28;;;10.81;64.58
22018;BME280;11173;51.050;7.108;2023-03-26T13:47:07;97953.00;;;10.69;63.03
22018;BME280;11173;51.050;7.108;2023-03-26T13:57:40;97964.91;;;10.60;63.70
22018;BME280;11173;51.050;7.108;2023-03-26T14:08:26;97964.19;;;10.28;61.60
22018;BME280;11173;51.050;7.108;2023-03-26T14:19:17;97982.31;;;10.33;61.41
22018;BME280;11173;51.050;7.108;2023-03-26T14:30:35;97984.34;;;10.01;62.71
22018;BME280;11173;51.050;7.108;2023-03-26T14:40:55;97994.88;;;9.75;63.10
22018;BME280;11173;51.050;7.108;2023-03-26T15:13:09;98038.44;;;8.51;63.29
22018;BME280;11173;51.050;7.108;2023-03-26T16:06:49;98108.44;;;8.04;63.62
22018;BME280;11173;51.050;7.108;2023-03-26T16:17:18;98117.47;;;8.08;64.61
22018;BME280;11173;51.050;7.108;2023-03-26T16:27:43;98139.34;;;7.90;64.17
22018;BME280;11173;51.050;7.108;2023-03-26T16:38:11;98163.03;;;7.78;63.45
22018;BME280;11173;51.050;7.108;2023-03-26T16:48:49;98189.03;;;7.39;64.71
22018;BME280;11173;51.050;7.108;2023-03-26T16:59:44;98207.63;;;7.22;65.71
22018;BME280;11173;51.050;7.108;2023-03-26T17:10:19;98223.34;;;6.92;66.93
22018;BME280;11173;51.050;7.108;2023-03-26T17:31:36;98272.53;;;6.48;67.66
22018;BME280;11173;51.050;7.108;2023-03-26T17:52:54;98307.28;;;6.29;68.18
22018;BME280;11173;51.050;7.108;2023-03-26T18:03:28;98343.34;;;6.22;68.64
22018;BME280;11173;51.050;7.108;2023-03-26T18:24:29;98399.28;;;6.09;68.53
22018;BME280;11173;51.050;7.108;2023-03-26T18:35:12;98411.16;;;6.06;68.27
22018;BME280;11173;51.050;7.108;2023-03-26T18:45:36;98427.75;;;6.06;67.94
22018;BME280;11173;51.050;7.108;2023-03-26T18:55:58;98455.56;;;5.95;67.31
22018;BME280;11173;51.050;7.108;2023-03-26T19:06:19;98481.28;;;5.92;66.67
22018;BME280;11173;51.050;7.108;2023-03-26T19:16:40;98488.59;;;5.79;66.09
22018;BME280;11173;51.050;7.108;2023-03-26T19:27:07;98513.88;;;5.47;64.11
22018;BME280;11173;51.050;7.108;2023-03-26T19:37:29;98537.13;;;5.49;64.89
22018;BME280;11173;51.050;7.108;2023-03-26T19:47:51;98548.97;;;5.46;64.03
22018;BME280;11173;51.050;7.108;2023-03-26T19:58:12;98571.41;;;5.52;64.69
22018;BME280;11173;51.050;7.108;2023-03-26T20:08:33;98595.16;;;5.46;63.46
22018;BME280;11173;51.050;7.108;2023-03-26T20:18:54;98592.91;;;5.33;62.76
22018;BME280;11173;51.050;7.108;2023-03-26T20:29:21;98615.88;;;5.23;62.17
22018;BME280;11173;51.050;7.108;2023-03-26T20:39:43;98645.50;;;5.19;60.92
22018;BME280;11173;51.050;7.108;2023-03-26T20:50:05;98672.47;;;5.01;61.13
22018;BME280;11173;51.050;7.108;2023-03-26T21:00:26;98684.56;;;5.17;62.86
22018;BME280;11173;51.050;7.108;2023-03-26T21:10:47;98699.59;;;5.13;62.19
22018;BME280;11173;51.050;7.108;2023-03-26T21:21:25;98727.66;;;5.01;60.27
22018;BME280;11173;51.050;7.108;2023-03-26T21:31:52;98743.56;;;4.86;59.19
22018;BME280;11173;51.050;7.108;2023-03-26T21:42:14;98766.19;;;4.52;55.25
22018;BME280;11173;51.050;7.108;2023-03-26T21:52:36;98805.66;;;4.38;55.33
22018;BME280;11173;51.050;7.108;2023-03-26T22:03:22;98816.41;;;3.86;52.51
22018;BME280;11173;51.050;7.108;2023-03-26T22:13:44;98875.81;;;3.90;54.02
22018;BME280;11173;51.050;7.108;2023-03-26T22:24:05;98896.28;;;3.64;55.71
22018;BME280;11173;51.050;7.108;2023-03-26T22:34:26;98910.78;;;3.25;55.38
22018;BME280;11173;51.050;7.108;2023-03-26T22:44:47;98928.22;;;2.74;56.03
22018;BME280;11173;51.050;7.108;2023-03-26T22:55:08;98952.50;;;2.57;58.33
22018;BME280;11173;51.050;7.108;2023-03-26T23:05:30;98979.88;;;2.39;59.62
22018;BME280;11173;51.050;7.108;2023-03-26T23:15:52;98991.84;;;2.17;59.29
22018;BME280;11173;51.050;7.108;2023-03-26T23:26:14;99010.53;;;2.01;60.14
22018;BME280;11173;51.050;7.108;2023-03-26T23:36:34;99053.13;;;1.80;60.49
22018;BME280;11173;51.050;7.108;2023-03-26T23:46:55;99054.41;;;1.56;60.83
22018;BME280;11173;51.050;7.108;2023-03-26T23:57:17;67552.56;;;-149.45;100.00
